sensor_id;sensor_type;location;lat;lon;timestamp;P1;durP1;ratioP1;P2;durP2;ratioP2
48733;SDS011;34530;52.084;5.146;2022-11-15T00:01:34;15.45;;;9.23;;
48733;SDS011;34530;52.084;5.146;2022-11-15T00:04:02;11.18;;;8.30;;
48733;SDS011;34530;52.084;5.146;2022-11-15T00:06:28;13.15;;;8.73;;
48733;SDS011;34530;52.084;5.146;2022-11-15T00:08:54;12.10;;;8.63;;
48733;SDS011;34530;52.084;5.146;2022-11-15T00:11:22;10.98;;;8.10;;
48733;SDS011;34530;52.084;5.146;2022-11-15T00:13:47;9.10;;;7.75;;
48733;SDS011;34530;52.084;5.146;2022-11-15T00:16:13;10.50;;;7.53;;
48733;SDS011;34530;52.084;5.146;2022-11-15T00:18:39;10.95;;;8.10;;
48733;SDS011;34530;52.084;5.146;2022-11-15T00:21:05;11.68;;;8.85;;
48733;SDS011;34530;52.084;5.146;2022-11-15T00:23:33;11.07;;;8.20;;
48733;SDS011;34530;52.084;5.146;2022-11-15T00:25:59;9.23;;;7.97;;
48733;SDS011;34530;52.084;5.146;2022-11-15T00:28:25;11.20;;;8.48;;
48733;SDS011;34530;52.084;5.146;2022-11-15T00:30:51;10.00;;;7.57;;
48733;SDS011;34530;52.084;5.146;2022-11-15T00:33:17;10.85;;;8.10;;
48733;SDS011;34530;52.084;5.146;2022-11-15T00:35:42;10.13;;;8.32;;
48733;SDS011;34530;52.084;5.146;2022-11-15T00:38:08;9.48;;;7.25;;
48733;SDS011;34530;52.084;5.146;2022-11-15T00:40:34;9.60;;;8.25;;
48733;SDS011;34530;52.084;5.146;2022-11-15T00:42:59;9.75;;;8.75;;
48733;SDS011;34530;52.084;5.146;2022-11-15T00:45:25;12.50;;;8.52;;
48733;SDS011;34530;52.084;5.146;2022-11-15T00:47:51;10.05;;;8.43;;
48733;SDS011;34530;52.084;5.146;2022-11-15T00:50:16;11.43;;;8.60;;
48733;SDS011;34530;52.084;5.146;2022-11-15T00:52:42;11.27;;;8.13;;
48733;SDS011;34530;52.084;5.146;2022-11-15T00:55:13;14.02;;;8.95;;
48733;SDS011;34530;52.084;5.146;2022-11-15T00:57:40;11.98;;;9.10;;
48733;SDS011;34530;52.084;5.146;2022-11-15T01:00:05;11.40;;;8.02;;
48733;SDS011;34530;52.084;5.146;2022-11-15T01:02:32;10.00;;;8.07;;
48733;SDS011;34530;52.084;5.146;2022-11-15T01:04:57;12.60;;;9.00;;
48733;SDS011;34530;52.084;5.146;2022-11-15T01:07:23;12.32;;;7.93;;
48733;SDS011;34530;52.084;5.146;2022-11-15T01:09:49;14.38;;;8.55;;
48733;SDS011;34530;52.084;5.146;2022-11-15T01:12:14;12.73;;;8.43;;
48733;SDS011;34530;52.084;5.146;2022-11-15T01:14:40;13.32;;;9.25;;
48733;SDS011;34530;52.084;5.146;2022-11-15T01:17:05;11.40;;;8.82;;
48733;SDS011;34530;52.084;5.146;2022-11-15T01:19:31;11.75;;;8.75;;
48733;SDS011;34530;52.084;5.146;2022-11-15T01:21:57;13.98;;;8.55;;
48733;SDS011;34530;52.084;5.146;2022-11-15T01:24:22;13.20;;;8.57;;
48733;SDS011;34530;52.084;5.146;2022-11-15T01:26:48;12.45;;;9.32;;
48733;SDS011;34530;52.084;5.146;2022-11-15T01:29:13;13.20;;;9.20;;
48733;SDS011;34530;52.084;5.146;2022-11-15T01:31:39;13.45;;;9.02;;
48733;SDS011;34530;52.084;5.146;2022-11-15T01:34:04;14.85;;;8.98;;
48733;SDS011;34530;52.084;5.146;2022-11-15T01:36:30;14.00;;;9.07;;
48733;SDS011;34530;52.084;5.146;2022-11-15T01:38:56;14.00;;;9.77;;
48733;SDS011;34530;52.084;5.146;2022-11-15T01:41:24;13.13;;;8.70;;
48733;SDS011;34530;52.084;5.146;2022-11-15T01:43:52;12.98;;;8.60;;
48733;SDS011;34530;52.084;5.146;2022-11-15T01:48:49;13.52;;;9.20;;
48733;SDS011;34530;52.084;5.146;2022-11-15T01:51:18;12.45;;;8.80;;
48733;SDS011;34530;52.084;5.146;2022-11-15T01:53:47;11.57;;;8.73;;
48733;SDS011;34530;52.084;5.146;2022-11-15T01:56:18;13.15;;;8.95;;
48733;SDS011;34530;52.084;5.146;2022-11-15T01:58:48;12.45;;;9.45;;
48733;SDS011;34530;52.084;5.146;2022-11-15T02:01:14;14.95;;;8.80;;
48733;SDS011;34530;52.084;5.146;2022-11-15T02:03:49;13.68;;;8.60;;
48733;SDS011;34530;52.084;5.146;2022-11-15T02:06:21;12.88;;;9.13;;
48733;SDS011;34530;52.084;5.146;2022-11-15T02:08:47;13.00;;;9.30;;
48733;SDS011;34530;52.084;5.146;2022-11-15T02:11:14;12.27;;;9.18;;
48733;SDS011;34530;52.084;5.146;2022-11-15T02:13:39;12.73;;;8.95;;
48733;SDS011;34530;52.084;5.146;2022-11-15T02:30:38;12.38;;;8.63;;
48733;SDS011;34530;52.084;5.146;2022-11-15T02:36:02;12.43;;;9.13;;
48733;SDS011;34530;52.084;5.146;2022-11-15T02:38:58;11.93;;;8.75;;
48733;SDS011;34530;52.084;5.146;2022-11-15T02:44:52;12.68;;;8.90;;
48733;SDS011;34530;52.084;5.146;2022-11-15T02:47:21;15.18;;;10.13;;
48733;SDS011;34530;52.084;5.146;2022-11-15T02:49:50;15.02;;;9.10;;
48733;SDS011;34530;52.084;5.146;2022-11-15T02:52:22;14.15;;;9.10;;
48733;SDS011;34530;52.084;5.146;2022-11-15T02:54:58;14.00;;;9.18;;
48733;SDS011;34530;52.084;5.146;2022-11-15T02:57:36;14.57;;;9.50;;
48733;SDS011;34530;52.084;5.146;2022-11-15T03:00:11;13.88;;;9.10;;
48733;SDS011;34530;52.084;5.146;2022-11-15T03:02:42;14.52;;;9.13;;
48733;SDS011;34530;52.084;5.146;2022-11-15T03:05:17;16.80;;;9.10;;
48733;SDS011;34530;52.084;5.146;2022-11-15T03:15:38;14.73;;;9.65;;
48733;SDS011;34530;52.084;5.146;2022-11-15T03:18:13;16.15;;;9.52;;
48733;SDS011;34530;52.084;5.146;2022-11-15T03:20:44;14.30;;;9.27;;
48733;SDS011;34530;52.084;5.146;2022-11-15T03:23:11;12.32;;;9.13;;
48733;SDS011;34530;52.084;5.146;2022-11-15T03:25:40;13.18;;;9.18;;
48733;SDS011;34530;52.084;5.146;2022-11-15T03:28:08;13.23;;;8.93;;
48733;SDS011;34530;52.084;5.146;2022-11-15T03:30:37;14.32;;;8.75;;
48733;SDS011;34530;52.084;5.146;2022-11-15T03:33:04;14.80;;;9.32;;
48733;SDS011;34530;52.084;5.146;2022-11-15T03:35:33;15.05;;;9.60;;
48733;SDS011;34530;52.084;5.146;2022-11-15T03:38:10;12.90;;;8.80;;
48733;SDS011;34530;52.084;5.146;2022-11-15T03:40:44;14.13;;;8.95;;
48733;SDS011;34530;52.084;5.146;2022-11-15T03:46:12;12.98;;;9.63;;
48733;SDS011;34530;52.084;5.146;2022-11-15T03:48:41;14.38;;;9.32;;
48733;SDS011;34530;52.084;5.146;2022-11-15T03:51:11;14.02;;;9.45;;
48733;SDS011;34530;52.084;5.146;2022-11-15T03:53:37;12.40;;;8.95;;
48733;SDS011;34530;52.084;5.146;2022-11-15T03:56:03;14.65;;;9.73;;
48733;SDS011;34530;52.084;5.146;2022-11-15T03:58:28;15.15;;;9.02;;
48733;SDS011;34530;52.084;5.146;2022-11-15T04:00:54;16.40;;;9.45;;
48733;SDS011;34530;52.084;5.146;2022-11-15T04:03:19;13.35;;;8.95;;
48733;SDS011;34530;52.084;5.146;2022-11-15T04:05:45;14.23;;;9.38;;
48733;SDS011;34530;52.084;5.146;2022-11-15T04:08:11;12.68;;;9.05;;
48733;SDS011;34530;52.084;5.146;2022-11-15T04:10:36;11.52;;;8.45;;
48733;SDS011;34530;52.084;5.146;2022-11-15T04:13:02;11.00;;;8.30;;
48733;SDS011;34530;52.084;5.146;2022-11-15T04:15:28;14.80;;;9.23;;
48733;SDS011;34530;52.084;5.146;2022-11-15T04:17:55;14.27;;;9.20;;
48733;SDS011;34530;52.084;5.146;2022-11-15T04:20:22;13.77;;;8.05;;
48733;SDS011;34530;52.084;5.146;2022-11-15T04:23:13;13.18;;;8.98;;
48733;SDS011;34530;52.084;5.146;2022-11-15T04:26:03;11.25;;;7.90;;
48733;SDS011;34530;52.084;5.146;2022-11-15T04:28:33;14.43;;;9.02;;
48733;SDS011;34530;52.084;5.146;2022-11-15T04:30:58;10.82;;;8.27;;
48733;SDS011;34530;52.084;5.146;2022-11-15T04:33:24;12.40;;;8.77;;
48733;SDS011;34530;52.084;5.146;2022-11-15T04:35:50;13.98;;;8.90;;
48733;SDS011;34530;52.084;5.146;2022-11-15T04:38:39;10.68;;;8.05;;
48733;SDS011;34530;52.084;5.146;2022-11-15T04:41:04;11.15;;;8.60;;
48733;SDS011;34530;52.084;5.146;2022-11-15T04:43:30;12.70;;;8.30;;
48733;SDS011;34530;52.084;5.146;2022-11-15T04:45:55;10.07;;;8.00;;
48733;SDS011;34530;52.084;5.146;2022-11-15T04:48:21;13.25;;;8.75;;
48733;SDS011;34530;52.084;5.146;2022-11-15T04:50:50;12.73;;;8.52;;
48733;SDS011;34530;52.084;5.146;2022-11-15T04:53:15;13.07;;;8.18;;
48733;SDS011;34530;52.084;5.146;2022-11-15T04:55:43;10.77;;;8.52;;
48733;SDS011;34530;52.084;5.146;2022-11-15T04:58:10;10.68;;;8.57;;
48733;SDS011;34530;52.084;5.146;2022-11-15T05:00:35;11.95;;;8.20;;
48733;SDS011;34530;52.084;5.146;2022-11-15T05:03:01;11.00;;;8.30;;
48733;SDS011;34530;52.084;5.146;2022-11-15T05:05:45;10.85;;;8.05;;
48733;SDS011;34530;52.084;5.146;2022-11-15T05:08:10;10.73;;;8.48;;
48733;SDS011;34530;52.084;5.146;2022-11-15T05:10:36;12.75;;;8.70;;
48733;SDS011;34530;52.084;5.146;2022-11-15T05:13:02;13.00;;;7.85;;
48733;SDS011;34530;52.084;5.146;2022-11-15T05:15:27;11.43;;;9.50;;
48733;SDS011;34530;52.084;5.146;2022-11-15T05:17:56;10.75;;;7.97;;
48733;SDS011;34530;52.084;5.146;2022-11-15T05:20:23;9.07;;;7.70;;
48733;SDS011;34530;52.084;5.146;2022-11-15T05:22:49;9.60;;;7.75;;
48733;SDS011;34530;52.084;5.146;2022-11-15T05:25:15;10.73;;;8.45;;
48733;SDS011;34530;52.084;5.146;2022-11-15T05:27:40;10.85;;;7.82;;
48733;SDS011;34530;52.084;5.146;2022-11-15T05:30:06;9.18;;;7.22;;
48733;SDS011;34530;52.084;5.146;2022-11-15T05:32:32;10.27;;;8.27;;
48733;SDS011;34530;52.084;5.146;2022-11-15T05:34:57;10.68;;;8.02;;
48733;SDS011;34530;52.084;5.146;2022-11-15T05:37:23;8.80;;;7.40;;
48733;SDS011;34530;52.084;5.146;2022-11-15T05:39:49;10.75;;;7.70;;
48733;SDS011;34530;52.084;5.146;2022-11-15T05:42:15;10.82;;;7.68;;
48733;SDS011;34530;52.084;5.146;2022-11-15T05:44:43;11.50;;;7.97;;
48733;SDS011;34530;52.084;5.146;2022-11-15T05:47:13;9.77;;;7.97;;
48733;SDS011;34530;52.084;5.146;2022-11-15T05:49:45;10.27;;;7.80;;
48733;SDS011;34530;52.084;5.146;2022-11-15T05:52:13;10.38;;;7.50;;
48733;SDS011;34530;52.084;5.146;2022-11-15T05:54:41;10.18;;;7.38;;
48733;SDS011;34530;52.084;5.146;2022-11-15T05:57:08;8.57;;;6.93;;
48733;SDS011;34530;52.084;5.146;2022-11-15T05:59:33;10.07;;;7.72;;
48733;SDS011;34530;52.084;5.146;2022-11-15T06:02:00;8.63;;;7.07;;
48733;SDS011;34530;52.084;5.146;2022-11-15T06:04:26;8.57;;;7.32;;
48733;SDS011;34530;52.084;5.146;2022-11-15T06:06:51;9.07;;;7.20;;
48733;SDS011;34530;52.084;5.146;2022-11-15T06:09:17;8.88;;;7.20;;
48733;SDS011;34530;52.084;5.146;2022-11-15T06:11:43;10.10;;;6.22;;
48733;SDS011;34530;52.084;5.146;2022-11-15T06:14:08;9.68;;;7.00;;
48733;SDS011;34530;52.084;5.146;2022-11-15T06:16:34;9.60;;;6.97;;
48733;SDS011;34530;52.084;5.146;2022-11-15T06:18:59;8.70;;;7.47;;
48733;SDS011;34530;52.084;5.146;2022-11-15T06:21:25;11.40;;;7.30;;
48733;SDS011;34530;52.084;5.146;2022-11-15T06:23:52;12.73;;;7.53;;
48733;SDS011;34530;52.084;5.146;2022-11-15T06:26:18;41.13;;;13.95;;
48733;SDS011;34530;52.084;5.146;2022-11-15T06:28:44;36.13;;;13.13;;
48733;SDS011;34530;52.084;5.146;2022-11-15T06:31:10;32.58;;;11.57;;
48733;SDS011;34530;52.084;5.146;2022-11-15T06:33:36;29.52;;;11.90;;
48733;SDS011;34530;52.084;5.146;2022-11-15T06:36:04;30.90;;;11.50;;
48733;SDS011;34530;52.084;5.146;2022-11-15T06:38:31;24.60;;;11.10;;
48733;SDS011;34530;52.084;5.146;2022-11-15T06:41:01;27.08;;;11.00;;
48733;SDS011;34530;52.084;5.146;2022-11-15T06:43:31;18.52;;;9.52;;
48733;SDS011;34530;52.084;5.146;2022-11-15T06:45:59;28.25;;;10.73;;
48733;SDS011;34530;52.084;5.146;2022-11-15T06:48:26;26.17;;;10.50;;
48733;SDS011;34530;52.084;5.146;2022-11-15T06:50:52;19.40;;;9.65;;
48733;SDS011;34530;52.084;5.146;2022-11-15T06:53:19;23.15;;;9.52;;
48733;SDS011;34530;52.084;5.146;2022-11-15T06:55:45;21.88;;;9.43;;
48733;SDS011;34530;52.084;5.146;2022-11-15T06:58:10;19.48;;;9.55;;
48733;SDS011;34530;52.084;5.146;2022-11-15T07:00:36;21.30;;;9.73;;
48733;SDS011;34530;52.084;5.146;2022-11-15T07:03:02;21.63;;;9.88;;
48733;SDS011;34530;52.084;5.146;2022-11-15T07:05:28;19.20;;;9.20;;
48733;SDS011;34530;52.084;5.146;2022-11-15T07:07:54;23.58;;;9.70;;
48733;SDS011;34530;52.084;5.146;2022-11-15T07:10:21;20.27;;;9.05;;
48733;SDS011;34530;52.084;5.146;2022-11-15T07:12:49;20.55;;;9.55;;
48733;SDS011;34530;52.084;5.146;2022-11-15T07:15:15;22.80;;;8.93;;
48733;SDS011;34530;52.084;5.146;2022-11-15T07:17:41;15.35;;;9.13;;
48733;SDS011;34530;52.084;5.146;2022-11-15T07:20:07;18.92;;;8.75;;
48733;SDS011;34530;52.084;5.146;2022-11-15T07:22:33;23.50;;;9.52;;
48733;SDS011;34530;52.084;5.146;2022-11-15T07:24:59;18.80;;;9.65;;
48733;SDS011;34530;52.084;5.146;2022-11-15T07:27:24;15.93;;;8.40;;
48733;SDS011;34530;52.084;5.146;2022-11-15T07:29:50;15.60;;;8.10;;
48733;SDS011;34530;52.084;5.146;2022-11-15T07:32:15;17.33;;;8.85;;
48733;SDS011;34530;52.084;5.146;2022-11-15T07:34:41;15.90;;;8.23;;
48733;SDS011;34530;52.084;5.146;2022-11-15T07:37:06;16.80;;;8.25;;
48733;SDS011;34530;52.084;5.146;2022-11-15T07:39:32;16.98;;;8.82;;
48733;SDS011;34530;52.084;5.146;2022-11-15T07:41:58;16.90;;;8.80;;
48733;SDS011;34530;52.084;5.146;2022-11-15T07:44:43;13.30;;;8.23;;
48733;SDS011;34530;52.084;5.146;2022-11-15T07:47:09;18.75;;;7.60;;
48733;SDS011;34530;52.084;5.146;2022-11-15T07:49:34;14.75;;;7.35;;
48733;SDS011;34530;52.084;5.146;2022-11-15T07:52:00;16.25;;;8.18;;
48733;SDS011;34530;52.084;5.146;2022-11-15T07:54:25;21.10;;;8.30;;
48733;SDS011;34530;52.084;5.146;2022-11-15T07:56:51;20.48;;;8.27;;
48733;SDS011;34530;52.084;5.146;2022-11-15T07:59:16;17.77;;;7.95;;
48733;SDS011;34530;52.084;5.146;2022-11-15T08:01:42;14.82;;;8.18;;
48733;SDS011;34530;52.084;5.146;2022-11-15T08:04:09;17.58;;;8.68;;
48733;SDS011;34530;52.084;5.146;2022-11-15T08:06:36;16.58;;;7.50;;
48733;SDS011;34530;52.084;5.146;2022-11-15T08:09:01;20.60;;;7.85;;
48733;SDS011;34530;52.084;5.146;2022-11-15T08:11:27;14.38;;;7.40;;
48733;SDS011;34530;52.084;5.146;2022-11-15T08:13:53;12.32;;;7.22;;
48733;SDS011;34530;52.084;5.146;2022-11-15T08:16:18;15.18;;;7.82;;
48733;SDS011;34530;52.084;5.146;2022-11-15T08:18:44;20.33;;;7.47;;
48733;SDS011;34530;52.084;5.146;2022-11-15T08:21:09;16.70;;;6.72;;
48733;SDS011;34530;52.084;5.146;2022-11-15T08:23:39;15.77;;;7.53;;
48733;SDS011;34530;52.084;5.146;2022-11-15T08:26:05;12.60;;;7.10;;
48733;SDS011;34530;52.084;5.146;2022-11-15T08:28:31;17.80;;;7.07;;
48733;SDS011;34530;52.084;5.146;2022-11-15T08:30:57;18.40;;;6.90;;
48733;SDS011;34530;52.084;5.146;2022-11-15T08:33:23;15.32;;;6.72;;
48733;SDS011;34530;52.084;5.146;2022-11-15T08:35:49;17.35;;;6.85;;
48733;SDS011;34530;52.084;5.146;2022-11-15T08:38:15;15.57;;;6.97;;
48733;SDS011;34530;52.084;5.146;2022-11-15T08:40:40;17.88;;;7.65;;
48733;SDS011;34530;52.084;5.146;2022-11-15T08:43:06;16.75;;;6.75;;
48733;SDS011;34530;52.084;5.146;2022-11-15T08:45:33;16.27;;;6.70;;
48733;SDS011;34530;52.084;5.146;2022-11-15T08:48:00;12.13;;;6.15;;
48733;SDS011;34530;52.084;5.146;2022-11-15T08:50:27;13.35;;;7.05;;
48733;SDS011;34530;52.084;5.146;2022-11-15T08:52:52;14.98;;;6.03;;
48733;SDS011;34530;52.084;5.146;2022-11-15T08:55:18;15.27;;;6.68;;
48733;SDS011;34530;52.084;5.146;2022-11-15T08:57:44;13.45;;;6.38;;
48733;SDS011;34530;52.084;5.146;2022-11-15T09:00:10;12.15;;;5.90;;
48733;SDS011;34530;52.084;5.146;2022-11-15T09:02:37;16.17;;;7.13;;
48733;SDS011;34530;52.084;5.146;2022-11-15T09:05:03;18.05;;;6.95;;
48733;SDS011;34530;52.084;5.146;2022-11-15T09:07:30;11.98;;;5.95;;
48733;SDS011;34530;52.084;5.146;2022-11-15T09:09:56;10.95;;;5.63;;
48733;SDS011;34530;52.084;5.146;2022-11-15T09:12:23;9.77;;;5.38;;
48733;SDS011;34530;52.084;5.146;2022-11-15T09:14:49;11.32;;;5.25;;
48733;SDS011;34530;52.084;5.146;2022-11-15T09:17:15;14.05;;;5.90;;
48733;SDS011;34530;52.084;5.146;2022-11-15T09:19:41;13.23;;;6.10;;
48733;SDS011;34530;52.084;5.146;2022-11-15T09:22:07;14.25;;;6.30;;
48733;SDS011;34530;52.084;5.146;2022-11-15T09:24:33;15.48;;;6.03;;
48733;SDS011;34530;52.084;5.146;2022-11-15T09:27:00;10.98;;;6.40;;
48733;SDS011;34530;52.084;5.146;2022-11-15T09:29:25;11.82;;;4.97;;
48733;SDS011;34530;52.084;5.146;2022-11-15T09:31:51;14.07;;;6.20;;
48733;SDS011;34530;52.084;5.146;2022-11-15T09:34:17;13.27;;;6.07;;
48733;SDS011;34530;52.084;5.146;2022-11-15T09:36:43;8.77;;;5.18;;
48733;SDS011;34530;52.084;5.146;2022-11-15T09:39:09;9.52;;;5.38;;
48733;SDS011;34530;52.084;5.146;2022-11-15T09:49:31;9.53;;;5.30;;
48733;SDS011;34530;52.084;5.146;2022-11-15T09:51:57;11.32;;;5.75;;
48733;SDS011;34530;52.084;5.146;2022-11-15T09:54:28;9.00;;;5.32;;
48733;SDS011;34530;52.084;5.146;2022-11-15T09:57:02;8.13;;;4.82;;
48733;SDS011;34530;52.084;5.146;2022-11-15T09:59:35;11.07;;;4.72;;
48733;SDS011;34530;52.084;5.146;2022-11-15T10:02:22;7.05;;;5.15;;
48733;SDS011;34530;52.084;5.146;2022-11-15T10:05:07;19.77;;;6.20;;
48733;SDS011;34530;52.084;5.146;2022-11-15T10:11:32;9.50;;;4.13;;
48733;SDS011;34530;52.084;5.146;2022-11-15T10:13:31;7.78;;;4.55;;
48733;SDS011;34530;52.084;5.146;2022-11-15T10:24:39;5.10;;;4.35;;
48733;SDS011;34530;52.084;5.146;2022-11-15T10:27:11;10.45;;;4.10;;
48733;SDS011;34530;52.084;5.146;2022-11-15T10:29:45;8.85;;;4.07;;
48733;SDS011;34530;52.084;5.146;2022-11-15T10:32:16;9.38;;;4.40;;
48733;SDS011;34530;52.084;5.146;2022-11-15T10:34:45;7.47;;;3.83;;
48733;SDS011;34530;52.084;5.146;2022-11-15T10:37:13;8.63;;;4.13;;
48733;SDS011;34530;52.084;5.146;2022-11-15T10:39:38;6.63;;;3.92;;
48733;SDS011;34530;52.084;5.146;2022-11-15T10:44:54;8.85;;;4.68;;
48733;SDS011;34530;52.084;5.146;2022-11-15T10:47:21;4.95;;;4.10;;
48733;SDS011;34530;52.084;5.146;2022-11-15T10:49:56;7.07;;;3.13;;
48733;SDS011;34530;52.084;5.146;2022-11-15T10:52:21;7.10;;;3.63;;
48733;SDS011;34530;52.084;5.146;2022-11-15T10:54:51;5.00;;;3.75;;
48733;SDS011;34530;52.084;5.146;2022-11-15T10:57:32;4.15;;;2.88;;
48733;SDS011;34530;52.084;5.146;2022-11-15T11:02:37;5.38;;;3.00;;
48733;SDS011;34530;52.084;5.146;2022-11-15T11:05:25;6.45;;;3.70;;
48733;SDS011;34530;52.084;5.146;2022-11-15T11:10:38;4.35;;;2.95;;
48733;SDS011;34530;52.084;5.146;2022-11-15T11:13:13;6.88;;;3.55;;
48733;SDS011;34530;52.084;5.146;2022-11-15T11:15:39;7.28;;;3.40;;
48733;SDS011;34530;52.084;5.146;2022-11-15T11:18:08;6.47;;;3.08;;
48733;SDS011;34530;52.084;5.146;2022-11-15T11:21:03;6.88;;;3.60;;
48733;SDS011;34530;52.084;5.146;2022-11-15T11:23:54;5.90;;;3.38;;
48733;SDS011;34530;52.084;5.146;2022-11-15T11:26:42;6.78;;;3.08;;
48733;SDS011;34530;52.084;5.146;2022-11-15T11:34:42;4.28;;;3.03;;
48733;SDS011;34530;52.084;5.146;2022-11-15T11:37:13;5.63;;;3.10;;
48733;SDS011;34530;52.084;5.146;2022-11-15T11:42:23;6.78;;;2.90;;
48733;SDS011;34530;52.084;5.146;2022-11-15T11:45:06;6.45;;;3.13;;
48733;SDS011;34530;52.084;5.146;2022-11-15T11:47:47;6.22;;;3.10;;
48733;SDS011;34530;52.084;5.146;2022-11-15T11:50:21;8.32;;;2.97;;
48733;SDS011;34530;52.084;5.146;2022-11-15T11:52:58;2.60;;;2.20;;
48733;SDS011;34530;52.084;5.146;2022-11-15T11:58:19;4.82;;;2.25;;
48733;SDS011;34530;52.084;5.146;2022-11-15T12:00:55;4.95;;;2.83;;
48733;SDS011;34530;52.084;5.146;2022-11-15T12:03:29;4.78;;;2.33;;
48733;SDS011;34530;52.084;5.146;2022-11-15T12:13:53;2.58;;;2.28;;
48733;SDS011;34530;52.084;5.146;2022-11-15T12:16:28;15.43;;;7.30;;
48733;SDS011;34530;52.084;5.146;2022-11-15T12:18:56;78.63;;;41.72;;
48733;SDS011;34530;52.084;5.146;2022-11-15T12:24:17;218.65;;;115.95;;
48733;SDS011;34530;52.084;5.146;2022-11-15T12:30:15;228.27;;;119.38;;
48733;SDS011;34530;52.084;5.146;2022-11-15T12:32:53;226.63;;;119.63;;
48733;SDS011;34530;52.084;5.146;2022-11-15T12:35:42;220.38;;;117.22;;
48733;SDS011;34530;52.084;5.146;2022-11-15T12:38:11;227.63;;;117.28;;
48733;SDS011;34530;52.084;5.146;2022-11-15T12:40:38;220.25;;;116.70;;
48733;SDS011;34530;52.084;5.146;2022-11-15T12:43:38;209.00;;;109.45;;
48733;SDS011;34530;52.084;5.146;2022-11-15T12:46:05;206.32;;;116.68;;
48733;SDS011;34530;52.084;5.146;2022-11-15T12:48:53;201.15;;;107.35;;
48733;SDS011;34530;52.084;5.146;2022-11-15T12:52:03;193.40;;;103.45;;
48733;SDS011;34530;52.084;5.146;2022-11-15T12:57:49;188.00;;;98.65;;
48733;SDS011;34530;52.084;5.146;2022-11-15T13:02:38;180.35;;;93.85;;
48733;SDS011;34530;52.084;5.146;2022-11-15T13:07:59;174.73;;;87.78;;
48733;SDS011;34530;52.084;5.146;2022-11-15T13:12:52;159.60;;;84.40;;
48733;SDS011;34530;52.084;5.146;2022-11-15T13:22:48;142.70;;;74.45;;
48733;SDS011;34530;52.084;5.146;2022-11-15T13:28:26;125.80;;;68.18;;
48733;SDS011;34530;52.084;5.146;2022-11-15T13:30:58;118.70;;;65.50;;
48733;SDS011;34530;52.084;5.146;2022-11-15T13:33:27;131.20;;;66.03;;
48733;SDS011;34530;52.084;5.146;2022-11-15T13:36:01;120.30;;;62.13;;
48733;SDS011;34530;52.084;5.146;2022-11-15T13:38:36;115.25;;;59.72;;
48733;SDS011;34530;52.084;5.146;2022-11-15T13:41:20;111.93;;;56.78;;
48733;SDS011;34530;52.084;5.146;2022-11-15T13:43:47;109.07;;;57.22;;
48733;SDS011;34530;52.084;5.146;2022-11-15T13:51:28;114.88;;;55.50;;
48733;SDS011;34530;52.084;5.146;2022-11-15T13:54:16;97.72;;;51.85;;
48733;SDS011;34530;52.084;5.146;2022-11-15T13:56:48;101.22;;;52.25;;
48733;SDS011;34530;52.084;5.146;2022-11-15T13:59:28;94.43;;;49.97;;
48733;SDS011;34530;52.084;5.146;2022-11-15T14:02:11;86.10;;;48.63;;
48733;SDS011;34530;52.084;5.146;2022-11-15T14:04:45;89.78;;;47.95;;
48733;SDS011;34530;52.084;5.146;2022-11-15T14:07:20;79.25;;;45.38;;
48733;SDS011;34530;52.084;5.146;2022-11-15T14:09:48;76.20;;;43.25;;
48733;SDS011;34530;52.084;5.146;2022-11-15T14:12:33;75.03;;;40.85;;
48733;SDS011;34530;52.084;5.146;2022-11-15T14:15:17;75.90;;;42.58;;
48733;SDS011;34530;52.084;5.146;2022-11-15T14:18:03;74.05;;;36.88;;
48733;SDS011;34530;52.084;5.146;2022-11-15T14:20:37;68.10;;;36.75;;
48733;SDS011;34530;52.084;5.146;2022-11-15T14:23:23;68.80;;;35.70;;
48733;SDS011;34530;52.084;5.146;2022-11-15T14:25:53;62.15;;;34.60;;
48733;SDS011;34530;52.084;5.146;2022-11-15T14:30:49;64.55;;;35.10;;
48733;SDS011;34530;52.084;5.146;2022-11-15T14:33:32;61.22;;;34.55;;
48733;SDS011;34530;52.084;5.146;2022-11-15T14:36:18;59.08;;;33.33;;
48733;SDS011;34530;52.084;5.146;2022-11-15T14:38:45;55.35;;;31.08;;
48733;SDS011;34530;52.084;5.146;2022-11-15T14:41:22;53.28;;;30.33;;
48733;SDS011;34530;52.084;5.146;2022-11-15T14:43:49;56.97;;;30.98;;
48733;SDS011;34530;52.084;5.146;2022-11-15T14:46:16;54.92;;;30.13;;
48733;SDS011;34530;52.084;5.146;2022-11-15T14:48:42;57.58;;;31.33;;
48733;SDS011;34530;52.084;5.146;2022-11-15T14:51:15;53.53;;;30.45;;
48733;SDS011;34530;52.084;5.146;2022-11-15T14:53:42;50.58;;;28.75;;
48733;SDS011;34530;52.084;5.146;2022-11-15T14:56:09;52.80;;;28.75;;
48733;SDS011;34530;52.084;5.146;2022-11-15T14:58:35;51.83;;;27.80;;
48733;SDS011;34530;52.084;5.146;2022-11-15T15:01:02;48.55;;;26.42;;
48733;SDS011;34530;52.084;5.146;2022-11-15T15:03:35;52.35;;;27.40;;
48733;SDS011;34530;52.084;5.146;2022-11-15T15:06:01;46.80;;;27.02;;
48733;SDS011;34530;52.084;5.146;2022-11-15T15:08:26;49.08;;;26.88;;
48733;SDS011;34530;52.084;5.146;2022-11-15T15:10:52;48.95;;;25.65;;
48733;SDS011;34530;52.084;5.146;2022-11-15T15:13:19;44.90;;;24.90;;
48733;SDS011;34530;52.084;5.146;2022-11-15T15:15:47;43.08;;;24.63;;
48733;SDS011;34530;52.084;5.146;2022-11-15T15:18:13;42.15;;;23.92;;
48733;SDS011;34530;52.084;5.146;2022-11-15T15:20:40;42.65;;;24.17;;
48733;SDS011;34530;52.084;5.146;2022-11-15T15:23:16;35.47;;;20.98;;
48733;SDS011;34530;52.084;5.146;2022-11-15T15:25:45;37.17;;;18.75;;
48733;SDS011;34530;52.084;5.146;2022-11-15T15:28:12;35.63;;;18.40;;
48733;SDS011;34530;52.084;5.146;2022-11-15T15:30:38;32.42;;;17.48;;
48733;SDS011;34530;52.084;5.146;2022-11-15T15:33:04;32.15;;;18.92;;
48733;SDS011;34530;52.084;5.146;2022-11-15T15:35:30;33.80;;;18.35;;
48733;SDS011;34530;52.084;5.146;2022-11-15T15:37:58;32.83;;;17.90;;
48733;SDS011;34530;52.084;5.146;2022-11-15T15:40:24;29.58;;;17.38;;
48733;SDS011;34530;52.084;5.146;2022-11-15T15:42:52;31.40;;;17.05;;
48733;SDS011;34530;52.084;5.146;2022-11-15T15:45:17;37.25;;;18.10;;
48733;SDS011;34530;52.084;5.146;2022-11-15T15:47:43;29.30;;;17.27;;
48733;SDS011;34530;52.084;5.146;2022-11-15T15:50:27;28.27;;;17.13;;
48733;SDS011;34530;52.084;5.146;2022-11-15T15:52:55;30.50;;;16.15;;
48733;SDS011;34530;52.084;5.146;2022-11-15T15:55:22;28.13;;;15.40;;
48733;SDS011;34530;52.084;5.146;2022-11-15T15:57:49;27.95;;;16.08;;
48733;SDS011;34530;52.084;5.146;2022-11-15T16:00:15;28.48;;;14.75;;
48733;SDS011;34530;52.084;5.146;2022-11-15T16:02:42;26.02;;;14.50;;
48733;SDS011;34530;52.084;5.146;2022-11-15T16:05:08;26.13;;;15.18;;
48733;SDS011;34530;52.084;5.146;2022-11-15T16:07:35;27.70;;;13.82;;
48733;SDS011;34530;52.084;5.146;2022-11-15T16:10:01;26.45;;;14.40;;
48733;SDS011;34530;52.084;5.146;2022-11-15T16:12:38;24.02;;;14.70;;
48733;SDS011;34530;52.084;5.146;2022-11-15T16:15:03;28.30;;;14.32;;
48733;SDS011;34530;52.084;5.146;2022-11-15T16:17:31;25.02;;;13.73;;
48733;SDS011;34530;52.084;5.146;2022-11-15T16:20:02;24.52;;;12.65;;
48733;SDS011;34530;52.084;5.146;2022-11-15T16:22:28;24.58;;;13.18;;
48733;SDS011;34530;52.084;5.146;2022-11-15T16:24:54;23.10;;;13.15;;
48733;SDS011;34530;52.084;5.146;2022-11-15T16:27:20;22.73;;;14.38;;
48733;SDS011;34530;52.084;5.146;2022-11-15T16:29:47;19.20;;;11.77;;
48733;SDS011;34530;52.084;5.146;2022-11-15T16:32:13;20.98;;;12.80;;
48733;SDS011;34530;52.084;5.146;2022-11-15T16:34:39;22.23;;;13.60;;
48733;SDS011;34530;52.084;5.146;2022-11-15T16:37:04;21.60;;;12.93;;
48733;SDS011;34530;52.084;5.146;2022-11-15T16:39:31;23.05;;;12.15;;